createdAt,value
2019-05-25T00:01:35.070Z,14.70
2019-05-25T00:04:08.675Z,14.70
2019-05-25T00:06:40.112Z,14.70
2019-05-25T00:09:09.960Z,14.70
2019-05-25T00:11:41.455Z,14.80
2019-05-25T00:14:14.793Z,14.90
2019-05-25T00:16:46.989Z,14.90
2019-05-25T00:19:19.039Z,15.00
2019-05-25T00:21:50.724Z,15.00
2019-05-25T00:24:22.025Z,15.00
2019-05-25T00:26:53.638Z,15.10
2019-05-25T00:29:24.974Z,15.10
2019-05-25T00:31:56.888Z,15.10
2019-05-25T00:34:28.423Z,15.20
2019-05-25T00:37:00.374Z,15.10
2019-05-25T00:39:32.017Z,15.10
2019-05-25T00:42:03.824Z,15.10
2019-05-25T00:44:36.138Z,15.10
2019-05-25T00:47:07.461Z,15.10
2019-05-25T00:49:42.170Z,15.10
2019-05-25T00:52:14.818Z,15.10
2019-05-25T00:54:46.249Z,15.10
2019-05-25T00:57:17.799Z,15.20
2019-05-25T00:59:49.769Z,15.20
2019-05-25T01:02:21.950Z,15.30
2019-05-25T01:04:53.686Z,15.40
2019-05-25T01:07:25.139Z,15.50
2019-05-25T01:09:56.564Z,15.50
2019-05-25T01:12:27.933Z,15.60
2019-05-25T01:15:00.118Z,15.50
2019-05-25T01:17:31.634Z,15.60
2019-05-25T01:20:03.236Z,15.50
2019-05-25T01:22:36.494Z,15.50
2019-05-25T01:25:08.692Z,15.50
2019-05-25T01:27:41.167Z,15.50
2019-05-25T01:30:15.127Z,15.50
2019-05-25T01:32:46.859Z,15.50
2019-05-25T01:35:18.628Z,15.50
2019-05-25T01:37:50.594Z,15.50
2019-05-25T01:40:22.725Z,15.50
2019-05-25T01:42:54.240Z,15.50
2019-05-25T01:45:44.952Z,15.50
2019-05-25T01:48:16.639Z,15.50
2019-05-25T01:50:49.364Z,15.50
2019-05-25T01:53:20.792Z,15.40
2019-05-25T01:55:53.104Z,15.40
2019-05-25T01:58:24.440Z,15.40
2019-05-25T02:00:55.879Z,15.40
2019-05-25T02:03:27.414Z,15.40
2019-05-25T02:06:00.131Z,15.40
2019-05-25T02:08:31.338Z,15.40
2019-05-25T02:11:02.830Z,15.40
2019-05-25T02:13:36.334Z,15.30
2019-05-25T02:16:09.699Z,15.30
2019-05-25T02:18:41.219Z,15.30
2019-05-25T02:21:13.790Z,15.20
2019-05-25T02:23:45.658Z,15.20
2019-05-25T02:26:17.093Z,15.20
2019-05-25T02:28:49.435Z,15.10
2019-05-25T02:31:20.979Z,15.10
2019-05-25T02:33:52.523Z,15.20
2019-05-25T02:36:23.830Z,15.10
2019-05-25T02:38:55.356Z,15.00
2019-05-25T02:41:27.597Z,15.00
2019-05-25T02:43:59.004Z,15.00
2019-05-25T02:46:31.424Z,14.90
2019-05-25T02:49:03.485Z,14.90
2019-05-25T02:51:34.808Z,14.80
2019-05-25T02:54:07.127Z,14.80
2019-05-25T02:56:38.644Z,14.80
2019-05-25T02:59:10.508Z,14.70
2019-05-25T03:01:41.999Z,14.70
2019-05-25T03:04:13.889Z,14.70
2019-05-25T03:06:46.399Z,14.70
2019-05-25T03:09:21.205Z,14.60
2019-05-25T03:11:53.603Z,14.60
2019-05-25T03:14:25.634Z,14.60
2019-05-25T03:16:56.984Z,14.70
2019-05-25T03:19:29.480Z,14.70
2019-05-25T03:22:01.048Z,14.60
2019-05-25T03:24:32.549Z,14.60
2019-05-25T03:27:04.104Z,14.50
2019-05-25T03:29:36.223Z,14.60
2019-05-25T03:32:07.692Z,14.60
2019-05-25T03:34:39.770Z,14.50
2019-05-25T03:37:11.114Z,14.50
2019-05-25T03:39:42.645Z,14.60
2019-05-25T03:42:14.697Z,14.60
2019-05-25T03:44:47.360Z,14.60
2019-05-25T03:47:19.402Z,14.60
2019-05-25T03:49:50.867Z,14.50
2019-05-25T03:52:23.072Z,14.50
2019-05-25T03:54:54.960Z,14.50
2019-05-25T03:57:27.431Z,14.50
2019-05-25T03:59:58.825Z,14.40
2019-05-25T04:02:30.477Z,14.40
2019-05-25T04:05:03.105Z,14.50
2019-05-25T04:07:35.582Z,14.60
2019-05-25T04:10:08.280Z,14.50
2019-05-25T04:12:39.603Z,14.60
2019-05-25T04:15:11.099Z,14.70
2019-05-25T04:17:44.166Z,14.60
2019-05-25T04:20:16.270Z,14.80
2019-05-25T04:22:48.129Z,14.90
2019-05-25T04:25:19.663Z,15.00
2019-05-25T04:27:51.136Z,14.90
2019-05-25T04:30:23.256Z,14.70
2019-05-25T04:32:55.558Z,15.00
2019-05-25T04:35:28.708Z,15.10
2019-05-25T04:38:01.192Z,16.70
2019-05-25T04:40:33.069Z,15.70
2019-05-25T04:43:04.843Z,15.30
2019-05-25T04:45:36.489Z,14.80
2019-05-25T04:48:08.276Z,14.50
2019-05-25T04:50:39.600Z,14.30
2019-05-25T04:53:11.275Z,15.70
2019-05-25T04:55:42.492Z,20.20
2019-05-25T04:58:13.843Z,20.10
2019-05-25T05:00:46.756Z,19.50
2019-05-25T05:03:19.083Z,20.70
2019-05-25T05:05:50.823Z,22.50
2019-05-25T05:08:23.245Z,23.20
2019-05-25T05:10:55.376Z,24.60
2019-05-25T05:13:26.899Z,23.90
2019-05-25T05:15:58.952Z,23.70
2019-05-25T05:18:30.756Z,24.90
2019-05-25T05:21:02.126Z,25.80
2019-05-25T05:23:33.933Z,25.60
2019-05-25T05:26:05.368Z,25.30
2019-05-25T05:28:36.783Z,25.90
2019-05-25T05:31:22.632Z,24.60
2019-05-25T05:33:41.115Z,25.80
2019-05-25T05:36:15.587Z,22.30
2019-05-25T05:38:48.861Z,22.80
2019-05-25T05:41:20.754Z,25.60
2019-05-25T05:43:54.955Z,25.00
2019-05-25T05:46:27.813Z,23.70
2019-05-25T05:48:59.697Z,20.60
2019-05-25T05:51:33.876Z,18.90
2019-05-25T05:54:06.062Z,20.20
2019-05-25T05:56:37.390Z,22.20
2019-05-25T05:59:09.741Z,21.80
2019-05-25T06:01:41.765Z,20.80
2019-05-25T06:04:13.267Z,19.80
2019-05-25T06:06:44.565Z,20.10
2019-05-25T06:09:18.667Z,18.50
2019-05-25T06:11:50.013Z,21.30
2019-05-25T06:14:21.395Z,22.80
2019-05-25T06:16:52.866Z,24.00
2019-05-25T06:19:24.736Z,22.90
2019-05-25T06:21:56.564Z,23.80
2019-05-25T06:24:28.382Z,20.70
2019-05-25T06:27:01.833Z,19.70
2019-05-25T06:29:33.319Z,19.30
2019-05-25T06:32:06.066Z,18.70
2019-05-25T06:34:37.354Z,18.40
2019-05-25T06:37:09.748Z,17.60
2019-05-25T06:39:41.827Z,17.30
2019-05-25T06:42:13.856Z,17.00
2019-05-25T06:44:47.196Z,17.00
2019-05-25T06:47:18.548Z,16.60
2019-05-25T06:49:50.124Z,16.80
2019-05-25T06:52:22.300Z,16.30
2019-05-25T06:54:54.943Z,16.20
2019-05-25T06:57:40.324Z,16.20
2019-05-25T07:00:00.065Z,15.80
2019-05-25T07:02:33.017Z,15.60
2019-05-25T07:05:04.904Z,16.00
2019-05-25T07:07:37.014Z,16.00
2019-05-25T07:10:10.949Z,16.10
2019-05-25T07:12:43.138Z,16.30
2019-05-25T07:15:15.382Z,16.30
2019-05-25T07:17:47.179Z,16.00
2019-05-25T07:20:20.540Z,15.90
2019-05-25T07:22:53.554Z,16.10
2019-05-25T07:25:25.379Z,16.10
2019-05-25T07:28:00.048Z,16.50
2019-05-25T07:30:30.125Z,16.60
2019-05-25T07:33:02.428Z,16.70
2019-05-25T07:35:33.722Z,16.80
2019-05-25T07:38:07.795Z,16.60
2019-05-25T07:40:40.081Z,16.30
2019-05-25T07:43:12.159Z,16.20
2019-05-25T07:45:44.963Z,16.20
2019-05-25T07:48:17.541Z,16.10
2019-05-25T07:50:48.868Z,15.90
2019-05-25T07:53:21.345Z,16.00
2019-05-25T07:55:53.018Z,16.10
2019-05-25T07:58:25.574Z,16.10
2019-05-25T08:00:57.893Z,16.20
2019-05-25T08:03:31.502Z,16.50
2019-05-25T08:06:04.044Z,16.40
2019-05-25T08:08:36.525Z,16.30
2019-05-25T08:11:08.752Z,16.40
2019-05-25T08:13:41.309Z,16.20
2019-05-25T08:16:12.680Z,15.80
2019-05-25T08:18:46.550Z,16.00
2019-05-25T08:21:18.231Z,16.20
2019-05-25T08:23:49.675Z,16.30
2019-05-25T08:26:22.047Z,16.50
2019-05-25T08:28:54.325Z,16.40
2019-05-25T08:31:25.747Z,16.10
2019-05-25T08:33:57.048Z,16.30
2019-05-25T08:36:29.859Z,16.10
2019-05-25T08:39:01.418Z,16.10
2019-05-25T08:41:34.595Z,16.30
2019-05-25T08:44:05.959Z,16.10
2019-05-25T08:46:37.232Z,16.20
2019-05-25T08:49:09.102Z,16.30
2019-05-25T08:51:41.825Z,16.20
2019-05-25T08:54:13.996Z,16.10
2019-05-25T08:56:46.130Z,16.10
2019-05-25T08:59:18.740Z,16.20
2019-05-25T09:01:50.429Z,16.50
2019-05-25T09:04:25.546Z,16.30
2019-05-25T09:06:55.668Z,16.30
2019-05-25T09:09:27.759Z,16.50
2019-05-25T09:11:59.109Z,16.60
2019-05-25T09:14:32.053Z,16.60
2019-05-25T09:17:05.111Z,16.60
2019-05-25T09:19:37.860Z,16.80
2019-05-25T09:22:09.909Z,16.80
2019-05-25T09:24:41.623Z,17.00
2019-05-25T09:27:14.214Z,16.60
2019-05-25T09:29:47.838Z,16.50
2019-05-25T09:32:19.401Z,16.80
2019-05-25T09:34:52.108Z,17.30
2019-05-25T09:37:23.451Z,17.50
2019-05-25T09:39:55.470Z,17.40
2019-05-25T09:42:27.253Z,17.30
2019-05-25T09:45:00.437Z,17.40
2019-05-25T09:47:31.734Z,17.40
2019-05-25T09:50:05.086Z,17.20
2019-05-25T09:52:36.391Z,17.40
2019-05-25T09:55:10.720Z,17.30
2019-05-25T09:57:42.218Z,17.30
2019-05-25T10:00:16.401Z,17.20
2019-05-25T10:02:49.559Z,17.10
2019-05-25T10:05:20.979Z,17.40
2019-05-25T10:07:52.334Z,17.20
2019-05-25T10:10:25.058Z,17.60
2019-05-25T10:12:57.222Z,17.70
2019-05-25T10:15:29.078Z,17.70
2019-05-25T10:18:01.221Z,17.50
2019-05-25T10:20:34.512Z,17.20
2019-05-25T10:23:07.118Z,17.20
2019-05-25T10:25:40.707Z,16.80
2019-05-25T10:28:12.247Z,17.40
2019-05-25T10:30:45.138Z,17.50
2019-05-25T10:33:16.591Z,17.50
2019-05-25T10:35:48.604Z,17.30
2019-05-25T10:38:20.045Z,17.20
2019-05-25T10:40:51.658Z,17.40
2019-05-25T10:43:25.250Z,17.00
2019-05-25T10:45:56.683Z,17.20
2019-05-25T10:48:28.972Z,17.70
2019-05-25T10:51:02.054Z,17.30
2019-05-25T10:53:33.594Z,17.10
2019-05-25T10:56:05.339Z,17.40
2019-05-25T10:58:36.655Z,17.50
2019-05-25T11:01:09.683Z,17.70
2019-05-25T11:03:41.754Z,17.60
2019-05-25T11:06:13.957Z,17.60
2019-05-25T11:08:45.634Z,17.20
2019-05-25T11:11:16.973Z,17.60
2019-05-25T11:13:48.473Z,17.40
2019-05-25T11:16:21.727Z,17.70
2019-05-25T11:18:53.132Z,18.00
2019-05-25T11:21:25.276Z,17.90
2019-05-25T11:23:58.025Z,17.70
2019-05-25T11:26:30.577Z,17.70
2019-05-25T11:29:02.190Z,17.60
2019-05-25T11:31:34.457Z,17.70
2019-05-25T11:34:06.897Z,17.60
2019-05-25T11:36:38.606Z,17.70
2019-05-25T11:39:09.983Z,17.90
2019-05-25T11:41:41.345Z,18.00
2019-05-25T11:44:13.229Z,17.60
2019-05-25T11:46:45.637Z,17.70
2019-05-25T11:49:22.414Z,17.90
2019-05-25T11:51:53.653Z,18.20
2019-05-25T11:54:25.306Z,17.90
2019-05-25T11:56:57.121Z,17.90
2019-05-25T11:59:30.400Z,17.90
2019-05-25T12:02:03.591Z,17.90
2019-05-25T12:04:36.416Z,18.10
2019-05-25T12:07:08.382Z,18.20
2019-05-25T12:09:40.376Z,18.30
2019-05-25T12:12:14.690Z,18.30
2019-05-25T12:14:46.764Z,18.10
2019-05-25T12:17:18.302Z,18.00
2019-05-25T12:19:50.177Z,18.20
2019-05-25T12:22:21.895Z,17.90
2019-05-25T12:24:53.491Z,17.40
2019-05-25T12:27:25.970Z,17.40
2019-05-25T12:29:57.417Z,17.50
2019-05-25T12:32:29.528Z,17.70
2019-05-25T12:35:01.441Z,17.40
2019-05-25T12:37:33.517Z,17.60
2019-05-25T12:40:08.226Z,17.70
2019-05-25T12:42:40.278Z,17.70
2019-05-25T12:45:13.895Z,17.70
2019-05-25T12:47:45.574Z,18.00
2019-05-25T12:50:18.568Z,18.10
2019-05-25T12:52:50.907Z,18.10
2019-05-25T12:55:23.478Z,18.00
2019-05-25T12:57:54.892Z,17.90
2019-05-25T13:00:27.441Z,18.10
2019-05-25T13:02:58.837Z,17.90
2019-05-25T13:05:34.269Z,17.80
2019-05-25T13:08:04.094Z,17.60
2019-05-25T13:10:37.120Z,17.50
2019-05-25T13:13:08.926Z,17.50
2019-05-25T13:15:40.732Z,17.80
2019-05-25T13:18:12.096Z,18.00
2019-05-25T13:20:43.583Z,17.90
2019-05-25T13:23:15.062Z,17.90
2019-05-25T13:25:47.270Z,17.60
2019-05-25T13:28:19.556Z,17.80
2019-05-25T13:30:51.590Z,18.10
2019-05-25T13:33:23.651Z,18.10
2019-05-25T13:35:56.368Z,17.90
2019-05-25T13:38:29.394Z,18.00
2019-05-25T13:41:01.993Z,17.60
2019-05-25T13:43:34.383Z,17.70
2019-05-25T13:46:05.917Z,17.60
2019-05-25T13:48:39.161Z,17.60
2019-05-25T13:51:12.357Z,17.40
2019-05-25T13:53:44.678Z,17.60
2019-05-25T13:56:16.221Z,17.50
2019-05-25T13:58:49.913Z,17.40
2019-05-25T14:01:28.332Z,17.70
2019-05-25T14:03:55.872Z,17.30
2019-05-25T14:06:28.140Z,17.30
2019-05-25T14:08:59.518Z,17.30
2019-05-25T14:11:30.875Z,17.40
2019-05-25T14:14:03.584Z,17.40
2019-05-25T14:16:36.040Z,17.50
2019-05-25T14:19:07.437Z,17.30
2019-05-25T14:21:39.962Z,17.30
2019-05-25T14:24:11.748Z,17.50
2019-05-25T14:26:43.897Z,17.70
2019-05-25T14:29:17.121Z,17.60
2019-05-25T14:31:49.106Z,17.50
2019-05-25T14:34:24.195Z,17.30
2019-05-25T14:36:55.967Z,17.00
2019-05-25T14:39:28.141Z,17.20
2019-05-25T14:42:00.208Z,17.20
2019-05-25T14:44:32.379Z,17.10
2019-05-25T14:47:04.560Z,17.00
2019-05-25T14:49:37.611Z,16.90
2019-05-25T14:52:10.843Z,17.00
2019-05-25T14:54:42.813Z,17.20
2019-05-25T14:57:14.343Z,17.30
2019-05-25T14:59:46.003Z,17.10
2019-05-25T15:02:17.316Z,17.00
2019-05-25T15:04:49.693Z,17.00
2019-05-25T15:07:21.715Z,17.00
2019-05-25T15:09:53.373Z,16.90
2019-05-25T15:12:25.021Z,16.80
2019-05-25T15:14:56.561Z,16.60
2019-05-25T15:17:27.977Z,16.80
2019-05-25T15:19:59.642Z,16.80
2019-05-25T15:22:33.036Z,16.70
2019-05-25T15:25:04.864Z,16.90
2019-05-25T15:27:37.560Z,17.00
2019-05-25T15:30:12.194Z,16.80
2019-05-25T15:32:44.701Z,17.00
2019-05-25T15:35:20.150Z,16.80
2019-05-25T15:37:53.512Z,16.60
2019-05-25T15:40:25.263Z,16.70
2019-05-25T15:42:56.822Z,16.60
2019-05-25T15:45:28.952Z,16.20
2019-05-25T15:48:00.575Z,16.50
2019-05-25T15:50:32.910Z,16.50
2019-05-25T15:53:04.735Z,16.40
2019-05-25T15:55:36.569Z,16.30
2019-05-25T15:58:08.303Z,16.40
2019-05-25T16:00:47.775Z,16.30
2019-05-25T16:03:22.195Z,16.30
2019-05-25T16:05:58.188Z,16.40
2019-05-25T16:08:29.896Z,16.50
2019-05-25T16:11:01.406Z,16.70
2019-05-25T16:13:34.625Z,16.70
2019-05-25T16:16:06.641Z,16.80
2019-05-25T16:18:38.012Z,16.40
2019-05-25T16:21:10.279Z,16.40
2019-05-25T16:23:41.730Z,16.60
2019-05-25T16:26:14.209Z,16.50
2019-05-25T16:28:45.693Z,16.50
2019-05-25T16:31:17.148Z,16.50
2019-05-25T16:33:50.007Z,16.40
2019-05-25T16:36:21.928Z,16.40
2019-05-25T16:38:54.715Z,16.50
2019-05-25T16:41:26.492Z,16.30
2019-05-25T16:43:57.851Z,16.20
2019-05-25T16:46:30.440Z,16.00
2019-05-25T16:49:04.238Z,16.00
2019-05-25T16:51:36.835Z,16.10
2019-05-25T16:54:08.782Z,16.10
2019-05-25T16:56:41.088Z,15.60
2019-05-25T16:59:13.258Z,15.60
2019-05-25T17:01:48.657Z,15.60
2019-05-25T17:04:18.328Z,15.50
2019-05-25T17:06:49.740Z,15.50
2019-05-25T17:09:22.947Z,15.70
2019-05-25T17:11:54.915Z,15.80
2019-05-25T17:14:27.409Z,15.70
2019-05-25T17:16:59.709Z,15.70
2019-05-25T17:19:32.100Z,15.70
2019-05-25T17:22:05.354Z,15.70
2019-05-25T17:24:38.526Z,15.80
2019-05-25T17:27:12.493Z,15.60
2019-05-25T17:29:44.189Z,15.50
2019-05-25T17:32:15.561Z,15.30
2019-05-25T17:34:49.227Z,15.40
2019-05-25T17:37:21.724Z,15.30
2019-05-25T17:39:54.218Z,15.40
2019-05-25T17:42:26.432Z,15.30
2019-05-25T17:45:00.095Z,15.10
2019-05-25T17:47:31.733Z,15.10
2019-05-25T17:50:03.432Z,15.00
2019-05-25T17:52:36.124Z,15.00
2019-05-25T17:55:07.625Z,15.00
2019-05-25T17:57:39.006Z,15.00
2019-05-25T18:00:11.891Z,14.90
2019-05-25T18:02:44.024Z,14.90
2019-05-25T18:05:15.804Z,14.80
2019-05-25T18:07:48.775Z,14.90
2019-05-25T18:10:23.018Z,14.80
2019-05-25T18:12:55.006Z,14.80
2019-05-25T18:15:26.885Z,14.80
2019-05-25T18:17:58.210Z,14.70
2019-05-25T18:20:29.915Z,14.60
2019-05-25T18:23:03.412Z,14.60
2019-05-25T18:25:35.627Z,14.50
2019-05-25T18:28:08.879Z,14.40
2019-05-25T18:30:41.787Z,14.30
2019-05-25T18:33:14.106Z,14.20
2019-05-25T18:35:45.925Z,14.30
2019-05-25T18:38:17.272Z,14.20
2019-05-25T18:40:48.672Z,14.00
2019-05-25T18:43:20.077Z,14.00
2019-05-25T18:45:54.160Z,14.00
2019-05-25T18:48:25.470Z,14.10
2019-05-25T18:50:57.032Z,14.10
2019-05-25T18:53:28.501Z,14.00
2019-05-25T18:56:01.120Z,14.10
2019-05-25T18:58:33.234Z,14.00
2019-05-25T19:01:04.745Z,14.00
2019-05-25T19:03:36.080Z,14.00
2019-05-25T19:06:07.379Z,13.90
2019-05-25T19:08:39.779Z,13.80
2019-05-25T19:11:12.085Z,13.80
2019-05-25T19:13:44.480Z,13.80
2019-05-25T19:16:15.797Z,13.70
2019-05-25T19:18:47.985Z,13.70
2019-05-25T19:21:20.052Z,13.70
2019-05-25T19:23:53.589Z,13.70
2019-05-25T19:26:25.013Z,13.70
2019-05-25T19:28:56.416Z,13.70
2019-05-25T19:31:28.631Z,13.60
2019-05-25T19:34:01.058Z,13.60
2019-05-25T19:36:32.307Z,13.40
2019-05-25T19:39:06.829Z,13.40
2019-05-25T19:41:38.914Z,13.40
2019-05-25T19:44:11.093Z,13.40
2019-05-25T19:46:42.358Z,13.40
2019-05-25T19:49:13.825Z,13.30
2019-05-25T19:51:46.488Z,13.40
2019-05-25T19:54:17.901Z,13.40
2019-05-25T19:56:49.938Z,13.40
2019-05-25T19:59:22.107Z,13.10
2019-05-25T20:01:53.589Z,13.20
2019-05-25T20:04:24.932Z,13.20
2019-05-25T20:06:58.134Z,13.10
2019-05-25T20:09:31.734Z,13.10
2019-05-25T20:12:03.919Z,13.10
2019-05-25T20:14:36.189Z,13.10
2019-05-25T20:17:08.568Z,13.10
2019-05-25T20:19:40.002Z,13.00
2019-05-25T20:22:11.424Z,12.90
2019-05-25T20:24:43.989Z,12.80
2019-05-25T20:27:18.755Z,13.00
2019-05-25T20:29:51.042Z,12.90
2019-05-25T20:32:22.914Z,12.70
2019-05-25T20:34:55.183Z,12.80
2019-05-25T20:37:27.468Z,12.80
2019-05-25T20:40:00.679Z,12.80
2019-05-25T20:42:33.931Z,12.50
2019-05-25T20:45:08.019Z,12.50
2019-05-25T20:47:39.894Z,12.60
2019-05-25T20:50:11.960Z,12.60
2019-05-25T20:52:44.094Z,12.50
2019-05-25T20:55:19.325Z,12.50
2019-05-25T20:57:51.348Z,12.50
2019-05-25T21:00:24.322Z,12.50
2019-05-25T21:03:06.146Z,12.50
2019-05-25T21:05:30.582Z,12.50
2019-05-25T21:08:01.962Z,12.50
2019-05-25T21:10:34.427Z,12.40
2019-05-25T21:13:06.208Z,12.30
2019-05-25T21:15:39.257Z,12.20
2019-05-25T21:18:13.087Z,12.20
2019-05-25T21:20:45.405Z,12.10
2019-05-25T21:23:18.931Z,12.10
2019-05-25T21:25:51.412Z,12.10
2019-05-25T21:28:23.079Z,12.00
2019-05-25T21:30:54.638Z,12.00
2019-05-25T21:33:26.155Z,12.00
2019-05-25T21:36:08.274Z,12.00
2019-05-25T21:38:36.914Z,12.00
2019-05-25T21:41:09.476Z,12.00
2019-05-25T21:43:42.244Z,11.90
2019-05-25T21:46:15.455Z,11.90
2019-05-25T21:48:47.284Z,11.90
2019-05-25T21:51:21.099Z,12.00
2019-05-25T21:53:53.345Z,11.90
2019-05-25T21:56:25.408Z,11.90
2019-05-25T21:58:56.864Z,11.80
2019-05-25T22:01:28.559Z,11.80
2019-05-25T22:04:01.224Z,11.80
2019-05-25T22:06:32.635Z,11.80
2019-05-25T22:09:05.713Z,11.80
2019-05-25T22:11:38.399Z,11.90
2019-05-25T22:14:13.208Z,11.70
2019-05-25T22:16:46.636Z,11.80
2019-05-25T22:19:18.512Z,11.80
2019-05-25T22:21:50.148Z,11.70
2019-05-25T22:24:22.784Z,11.80
2019-05-25T22:26:55.342Z,11.60
2019-05-25T22:29:26.675Z,11.60
2019-05-25T22:31:58.283Z,11.60
2019-05-25T22:34:31.639Z,11.60
2019-05-25T22:37:04.296Z,11.60
2019-05-25T22:39:37.393Z,11.60
2019-05-25T22:42:09.147Z,11.60
2019-05-25T22:44:41.626Z,11.60
2019-05-25T22:47:14.609Z,11.50
2019-05-25T22:49:47.581Z,11.60
2019-05-25T22:52:19.629Z,11.60
2019-05-25T22:54:51.913Z,11.50
2019-05-25T22:57:24.705Z,11.50
2019-05-25T22:59:56.882Z,11.50
2019-05-25T23:02:29.734Z,11.40
2019-05-25T23:05:02.643Z,11.40
2019-05-25T23:07:36.246Z,11.50
2019-05-25T23:10:12.244Z,11.40
2019-05-25T23:12:43.596Z,11.50
2019-05-25T23:15:17.768Z,11.50
2019-05-25T23:17:49.418Z,11.40
2019-05-25T23:20:21.763Z,11.30
2019-05-25T23:22:54.937Z,11.40
2019-05-25T23:25:27.210Z,11.30
2019-05-25T23:27:58.611Z,11.40
2019-05-25T23:30:30.127Z,11.40
2019-05-25T23:33:02.098Z,11.40
2019-05-25T23:35:35.968Z,11.30
2019-05-25T23:38:09.366Z,11.30
2019-05-25T23:40:41.720Z,11.30
2019-05-25T23:43:13.944Z,11.30
2019-05-25T23:45:47.319Z,11.40
2019-05-25T23:48:19.474Z,11.30
2019-05-25T23:50:52.619Z,11.40
2019-05-25T23:53:24.504Z,11.40
2019-05-25T23:55:57.577Z,11.40
2019-05-25T23:58:30.032Z,11.40
